createdAt,value
2022-09-28T00:01:17.158Z,3.80
2022-09-28T00:03:45.524Z,3.80
2022-09-28T00:06:15.445Z,4.50
2022-09-28T00:08:43.045Z,4.10
2022-09-28T00:11:13.926Z,4.18
2022-09-28T00:13:44.730Z,4.40
2022-09-28T00:16:17.942Z,3.75
2022-09-28T00:18:45.962Z,4.20
2022-09-28T00:21:25.045Z,4.28
2022-09-28T00:24:12.130Z,4.43
2022-09-28T00:27:06.908Z,4.75
2022-09-28T00:29:36.263Z,4.95
2022-09-28T00:32:05.996Z,4.75
2022-09-28T00:34:38.478Z,5.03
2022-09-28T00:37:09.217Z,5.07
2022-09-28T00:39:39.172Z,4.60
2022-09-28T00:42:16.556Z,4.30
2022-09-28T00:45:04.339Z,4.63
2022-09-28T00:47:44.739Z,4.65
2022-09-28T00:50:32.663Z,4.40
2022-09-28T00:53:21.552Z,4.28
2022-09-28T00:55:51.427Z,4.38
2022-09-28T00:58:22.167Z,4.30
2022-09-28T01:00:49.469Z,4.05
2022-09-28T01:03:17.624Z,4.13
2022-09-28T01:05:45.219Z,4.10
2022-09-28T01:08:13.028Z,4.22
2022-09-28T01:10:41.367Z,4.30
2022-09-28T01:13:08.702Z,3.92
2022-09-28T01:15:43.529Z,4.10
2022-09-28T01:18:19.957Z,3.95
2022-09-28T01:21:09.065Z,3.92
2022-09-28T01:23:44.556Z,3.83
2022-09-28T01:26:45.518Z,3.72
2022-09-28T01:29:18.833Z,3.92
2022-09-28T01:31:58.974Z,3.90
2022-09-28T01:34:31.731Z,4.07
2022-09-28T01:37:01.683Z,4.05
2022-09-28T01:39:42.273Z,3.97
2022-09-28T01:42:15.833Z,4.38
2022-09-28T01:44:46.578Z,3.70
2022-09-28T01:47:16.524Z,3.90
2022-09-28T01:49:48.064Z,4.05
2022-09-28T01:52:29.415Z,3.83
2022-09-28T01:55:16.444Z,3.97
2022-09-28T01:57:49.734Z,3.75
2022-09-28T02:00:18.647Z,3.33
2022-09-28T02:03:13.356Z,2.97
2022-09-28T02:05:42.104Z,2.75
2022-09-28T02:08:46.438Z,2.90
2022-09-28T02:11:15.997Z,2.40
2022-09-28T02:14:04.405Z,2.58
2022-09-28T02:16:36.319Z,2.22
2022-09-28T02:19:04.542Z,2.15
2022-09-28T02:21:43.500Z,2.38
2022-09-28T02:24:21.405Z,2.08
2022-09-28T02:26:50.401Z,2.30
2022-09-28T02:29:17.635Z,2.40
2022-09-28T02:31:44.533Z,2.20
2022-09-28T02:34:11.794Z,2.40
2022-09-28T02:36:39.347Z,2.38
2022-09-28T02:39:14.174Z,2.08
2022-09-28T02:42:02.147Z,2.50
2022-09-28T02:44:48.744Z,2.28
2022-09-28T02:47:46.356Z,2.22
2022-09-28T02:50:25.161Z,2.50
2022-09-28T02:53:27.974Z,2.28
2022-09-28T02:56:25.854Z,2.00
2022-09-28T02:59:09.659Z,2.28
2022-09-28T03:01:57.364Z,2.30
2022-09-28T03:04:34.622Z,2.28
2022-09-28T03:07:16.643Z,2.15
2022-09-28T03:10:00.340Z,2.10
2022-09-28T03:12:30.126Z,2.60
2022-09-28T03:15:23.063Z,2.20
2022-09-28T03:17:50.152Z,2.20
2022-09-28T03:20:17.278Z,2.20
2022-09-28T03:23:00.225Z,2.45
2022-09-28T03:25:34.868Z,2.25
2022-09-28T03:28:02.409Z,2.30
2022-09-28T03:30:29.928Z,2.40
2022-09-28T03:33:00.039Z,2.55
2022-09-28T03:35:28.105Z,2.53
2022-09-28T03:37:56.455Z,2.42
2022-09-28T03:40:23.513Z,2.70
2022-09-28T03:42:52.132Z,2.30
2022-09-28T03:45:21.371Z,2.90
2022-09-28T03:47:50.347Z,2.50
2022-09-28T03:50:18.367Z,2.47
2022-09-28T03:52:46.152Z,2.85
2022-09-28T03:55:13.089Z,3.00
2022-09-28T03:57:40.125Z,2.95
2022-09-28T04:00:09.084Z,3.22
2022-09-28T04:02:36.848Z,3.35
2022-09-28T04:05:05.496Z,3.08
2022-09-28T04:07:32.617Z,3.08
2022-09-28T04:10:00.155Z,3.00
2022-09-28T04:12:27.490Z,3.33
2022-09-28T04:14:55.091Z,3.40
2022-09-28T04:17:22.943Z,3.30
2022-09-28T04:19:50.520Z,3.50
2022-09-28T04:22:17.818Z,3.45
2022-09-28T04:24:44.626Z,3.30
2022-09-28T04:27:35.105Z,3.38
2022-09-28T04:30:02.399Z,3.67
2022-09-28T04:32:31.509Z,3.60
2022-09-28T04:34:59.484Z,3.85
2022-09-28T04:37:26.893Z,3.47
2022-09-28T04:39:53.668Z,3.80
2022-09-28T04:42:20.512Z,3.53
2022-09-28T04:44:48.047Z,3.35
2022-09-28T04:47:14.909Z,3.50
2022-09-28T04:49:42.975Z,3.45
2022-09-28T04:52:15.823Z,3.50
2022-09-28T04:54:46.676Z,3.38
2022-09-28T04:57:15.347Z,3.13
2022-09-28T04:59:42.488Z,3.33
2022-09-28T05:02:09.544Z,3.45
2022-09-28T05:04:37.071Z,3.60
2022-09-28T05:07:05.369Z,3.33
2022-09-28T05:09:36.349Z,3.22
2022-09-28T05:12:07.604Z,3.50
2022-09-28T05:14:35.118Z,3.50
2022-09-28T05:17:03.455Z,3.30
2022-09-28T05:19:30.751Z,3.22
2022-09-28T05:22:04.641Z,3.40
2022-09-28T05:24:32.317Z,3.60
2022-09-28T05:26:59.288Z,3.50
2022-09-28T05:29:32.053Z,3.80
2022-09-28T05:32:02.095Z,3.50
2022-09-28T05:34:31.103Z,3.90
2022-09-28T05:36:58.410Z,3.90
2022-09-28T05:39:27.693Z,3.30
2022-09-28T05:41:57.379Z,3.25
2022-09-28T05:44:25.472Z,3.13
2022-09-28T05:46:54.935Z,3.42
2022-09-28T05:49:22.147Z,3.38
2022-09-28T05:51:49.115Z,3.50
2022-09-28T05:54:17.015Z,3.28
2022-09-28T05:56:46.874Z,3.08
2022-09-28T05:59:14.262Z,3.20
2022-09-28T06:01:42.823Z,3.20
2022-09-28T06:04:10.516Z,3.30
2022-09-28T06:06:39.647Z,3.63
2022-09-28T06:09:06.489Z,3.80
2022-09-28T06:11:34.256Z,3.38
2022-09-28T06:14:03.495Z,3.63
2022-09-28T06:16:32.847Z,3.83
2022-09-28T06:19:04.163Z,3.38
2022-09-28T06:21:33.333Z,3.65
2022-09-28T06:24:03.459Z,3.75
2022-09-28T06:26:32.076Z,3.22
2022-09-28T06:29:01.503Z,3.50
2022-09-28T06:31:30.364Z,3.55
2022-09-28T06:33:57.478Z,4.32
2022-09-28T06:36:26.676Z,4.28
2022-09-28T06:38:55.800Z,4.00
2022-09-28T06:41:22.462Z,3.70
2022-09-28T06:43:50.032Z,3.42
2022-09-28T06:46:16.917Z,3.05
2022-09-28T06:48:45.311Z,2.17
2022-09-28T06:51:16.137Z,1.80
2022-09-28T06:53:45.351Z,1.92
2022-09-28T06:56:13.989Z,1.95
2022-09-28T06:58:42.724Z,2.40
2022-09-28T07:01:12.946Z,2.00
2022-09-28T07:03:40.856Z,2.10
2022-09-28T07:06:10.755Z,1.70
2022-09-28T07:08:37.592Z,2.10
2022-09-28T07:11:09.601Z,2.08
2022-09-28T07:13:53.686Z,2.33
2022-09-28T07:18:56.102Z,2.40
2022-09-28T07:21:29.821Z,3.20
2022-09-28T07:23:59.679Z,2.25
2022-09-28T07:26:26.624Z,2.30
2022-09-28T07:28:54.177Z,2.33
2022-09-28T07:31:28.289Z,2.20
2022-09-28T07:33:56.927Z,2.05
2022-09-28T07:36:24.176Z,2.40
2022-09-28T07:38:52.932Z,1.95
2022-09-28T07:41:33.299Z,2.38
2022-09-28T07:44:08.963Z,2.25
2022-09-28T07:46:39.068Z,2.92
2022-09-28T07:49:11.560Z,4.60
2022-09-28T07:51:45.283Z,3.40
2022-09-28T07:54:12.394Z,2.60
2022-09-28T07:56:42.477Z,2.50
2022-09-28T07:59:11.554Z,2.72
2022-09-28T08:01:38.872Z,2.90
2022-09-28T08:04:07.199Z,2.60
2022-09-28T08:06:36.251Z,3.17
2022-09-28T08:09:04.893Z,2.75
2022-09-28T08:11:31.709Z,2.80
2022-09-28T08:14:00.579Z,3.00
2022-09-28T08:16:28.271Z,3.22
2022-09-28T08:18:56.773Z,3.30
2022-09-28T08:21:43.342Z,3.30
2022-09-28T08:24:11.319Z,3.60
2022-09-28T08:26:40.266Z,3.60
2022-09-28T08:29:09.171Z,3.90
2022-09-28T08:31:37.037Z,3.88
2022-09-28T08:34:05.580Z,3.33
2022-09-28T08:36:34.194Z,3.17
2022-09-28T08:39:04.545Z,3.53
2022-09-28T08:42:04.301Z,3.58
2022-09-28T08:48:11.947Z,4.38
2022-09-28T08:51:08.147Z,3.80
2022-09-28T08:54:20.964Z,3.00
2022-09-28T08:56:53.530Z,3.40
2022-09-28T08:59:26.472Z,3.30
2022-09-28T09:02:01.987Z,3.00
2022-09-28T09:04:43.768Z,3.38
2022-09-28T09:07:57.636Z,2.70
2022-09-28T09:10:58.233Z,1.90
2022-09-28T09:13:53.885Z,2.10
2022-09-28T09:16:47.171Z,2.10
2022-09-28T09:19:47.006Z,2.30
2022-09-28T09:22:30.661Z,1.80
2022-09-28T09:28:40.923Z,2.05
2022-09-28T09:34:58.838Z,2.17
2022-09-28T09:37:42.273Z,2.50
2022-09-28T09:40:47.880Z,2.85
2022-09-28T09:43:59.878Z,2.63
2022-09-28T09:46:40.278Z,2.30
2022-09-28T09:49:23.052Z,2.00
2022-09-28T09:52:01.984Z,1.70
2022-09-28T09:55:29.876Z,1.70
2022-09-28T09:58:22.256Z,1.90
2022-09-28T10:00:52.146Z,2.20
2022-09-28T10:03:24.596Z,2.70
2022-09-28T10:06:01.206Z,3.55
2022-09-28T10:08:29.911Z,2.80
2022-09-28T10:11:21.946Z,2.92
2022-09-28T10:13:52.242Z,2.25
2022-09-28T10:16:21.340Z,2.20
2022-09-28T10:18:55.738Z,2.30
2022-09-28T10:21:25.920Z,2.22
2022-09-28T10:23:58.305Z,2.20
2022-09-28T10:26:35.651Z,2.00
2022-09-28T10:29:07.373Z,1.48
2022-09-28T10:31:54.076Z,1.35
2022-09-28T10:34:29.350Z,1.77
2022-09-28T10:37:10.625Z,1.70
2022-09-28T10:40:03.790Z,1.95
2022-09-28T10:42:34.428Z,1.27
2022-09-28T10:45:26.784Z,1.90
2022-09-28T10:47:58.929Z,1.40
2022-09-28T10:50:30.381Z,1.30
2022-09-28T10:53:14.832Z,1.40
2022-09-28T10:55:44.816Z,1.13
2022-09-28T10:58:43.681Z,1.52
2022-09-28T11:01:17.414Z,1.40
2022-09-28T11:04:00.425Z,1.20
2022-09-28T11:06:37.605Z,1.50
2022-09-28T11:09:08.343Z,1.67
2022-09-28T11:11:43.128Z,1.60
2022-09-28T11:14:45.740Z,1.65
2022-09-28T11:17:45.078Z,1.50
2022-09-28T11:20:33.385Z,1.58
2022-09-28T11:23:30.652Z,2.10
2022-09-28T11:26:03.879Z,3.25
2022-09-28T11:28:33.509Z,3.00
2022-09-28T11:31:02.418Z,3.28
2022-09-28T11:33:41.500Z,1.40
2022-09-28T11:36:16.050Z,1.33
2022-09-28T11:39:20.497Z,1.20
2022-09-28T11:42:32.327Z,1.30
2022-09-28T11:45:37.544Z,1.50
2022-09-28T11:48:18.523Z,1.90
2022-09-28T11:51:24.412Z,1.83
2022-09-28T11:54:01.964Z,1.85
2022-09-28T11:56:37.211Z,2.15
2022-09-28T11:59:17.793Z,1.70
2022-09-28T12:02:01.837Z,2.00
2022-09-28T12:04:38.105Z,1.92
2022-09-28T12:07:30.240Z,2.05
2022-09-28T12:10:21.745Z,1.70
2022-09-28T12:12:59.387Z,2.03
2022-09-28T12:15:42.258Z,2.40
2022-09-28T12:18:26.545Z,2.03
2022-09-28T12:21:11.447Z,2.22
2022-09-28T12:23:48.893Z,2.40
2022-09-28T12:27:04.207Z,2.15
2022-09-28T12:29:41.295Z,3.17
2022-09-28T12:32:37.752Z,4.05
2022-09-28T12:35:19.307Z,3.20
2022-09-28T12:38:12.318Z,2.58
2022-09-28T12:41:00.218Z,3.20
2022-09-28T12:43:50.454Z,2.70
2022-09-28T12:46:48.629Z,2.35
2022-09-28T12:53:06.701Z,2.60
2022-09-28T12:55:54.508Z,2.80
2022-09-28T12:58:49.936Z,2.65
2022-09-28T13:02:08.869Z,3.30
2022-09-28T13:04:52.312Z,3.88
2022-09-28T13:07:27.829Z,5.35
2022-09-28T13:13:14.320Z,3.45
2022-09-28T13:18:48.377Z,2.50
2022-09-28T13:21:27.672Z,2.42
2022-09-28T13:24:09.056Z,2.03
2022-09-28T13:26:48.513Z,2.33
2022-09-28T13:29:20.279Z,2.30
2022-09-28T13:31:47.525Z,2.13
2022-09-28T13:34:22.813Z,2.10
2022-09-28T13:37:21.938Z,1.80
2022-09-28T13:39:57.225Z,1.73
2022-09-28T13:42:55.732Z,1.38
2022-09-28T13:45:50.727Z,1.08
2022-09-28T13:51:08.439Z,1.10
2022-09-28T13:54:00.692Z,1.20
2022-09-28T13:56:54.338Z,1.27
2022-09-28T13:59:30.854Z,1.30
2022-09-28T14:02:07.278Z,1.20
2022-09-28T14:05:23.405Z,1.20
2022-09-28T14:08:27.709Z,0.90
2022-09-28T14:10:58.178Z,0.90
2022-09-28T14:17:43.821Z,1.00
2022-09-28T14:20:16.448Z,1.10
2022-09-28T14:23:01.504Z,1.20
2022-09-28T14:25:36.665Z,1.27
2022-09-28T14:31:46.327Z,1.20
2022-09-28T14:34:33.593Z,2.20
2022-09-28T14:37:22.197Z,1.48
2022-09-28T14:40:10.560Z,1.27
2022-09-28T14:42:39.617Z,1.30
2022-09-28T14:45:28.147Z,1.20
2022-09-28T14:48:15.948Z,1.27
2022-09-28T14:50:45.161Z,1.30
2022-09-28T14:53:14.847Z,1.40
2022-09-28T14:55:50.969Z,1.10
2022-09-28T14:58:23.176Z,1.45
2022-09-28T15:00:56.458Z,1.35
2022-09-28T15:03:26.514Z,1.25
2022-09-28T15:05:54.549Z,1.38
2022-09-28T15:08:23.059Z,1.23
2022-09-28T15:10:51.715Z,1.25
2022-09-28T15:13:26.744Z,1.50
2022-09-28T15:16:12.398Z,1.33
2022-09-28T15:19:16.903Z,1.40
2022-09-28T15:21:48.823Z,1.40
2022-09-28T15:24:55.897Z,1.23
2022-09-28T15:27:49.281Z,1.30
2022-09-28T15:30:24.929Z,1.40
2022-09-28T15:32:57.088Z,1.40
2022-09-28T15:35:26.827Z,1.60
2022-09-28T15:37:56.819Z,1.48
2022-09-28T15:40:36.448Z,1.48
2022-09-28T15:43:25.925Z,1.65
2022-09-28T15:46:10.346Z,2.10
2022-09-28T15:48:48.685Z,2.00
2022-09-28T15:51:15.481Z,3.90
2022-09-28T15:54:04.870Z,3.15
2022-09-28T15:56:32.283Z,2.88
2022-09-28T15:59:35.434Z,5.65
2022-09-28T16:02:30.020Z,4.95
2022-09-28T16:05:02.568Z,5.22
2022-09-28T16:07:39.200Z,4.53
2022-09-28T16:10:33.926Z,4.50
2022-09-28T16:13:19.872Z,2.92
2022-09-28T16:15:59.399Z,2.50
2022-09-28T16:18:30.220Z,2.60
2022-09-28T16:21:25.386Z,2.60
2022-09-28T16:23:55.933Z,2.60
2022-09-28T16:26:30.148Z,2.60
2022-09-28T16:31:29.690Z,2.88
2022-09-28T16:34:01.849Z,2.83
2022-09-28T16:36:39.403Z,3.08
2022-09-28T16:39:09.205Z,6.13
2022-09-28T16:41:38.881Z,24.30
2022-09-28T16:44:15.930Z,9.65
2022-09-28T16:46:45.717Z,7.18
2022-09-28T16:49:19.054Z,3.70
2022-09-28T16:51:48.245Z,3.97
2022-09-28T16:54:42.184Z,4.97
2022-09-28T16:57:12.404Z,4.55
2022-09-28T16:59:42.263Z,5.72
2022-09-28T17:05:16.150Z,4.75
2022-09-28T17:07:47.933Z,25.50
2022-09-28T17:10:24.381Z,18.88
2022-09-28T17:12:52.211Z,12.90
2022-09-28T17:15:19.958Z,12.50
2022-09-28T17:17:47.609Z,12.93
2022-09-28T17:20:31.527Z,10.13
2022-09-28T17:23:02.067Z,8.20
2022-09-28T17:25:32.696Z,4.65
2022-09-28T17:28:02.291Z,5.38
2022-09-28T17:30:32.722Z,7.07
2022-09-28T17:33:03.030Z,3.83
2022-09-28T17:35:35.146Z,4.32
2022-09-28T17:38:07.264Z,4.68
2022-09-28T17:40:35.382Z,4.03
2022-09-28T17:43:06.117Z,8.63
2022-09-28T17:45:40.827Z,7.68
2022-09-28T17:48:18.158Z,5.25
2022-09-28T17:50:48.390Z,5.78
2022-09-28T17:53:16.373Z,5.10
2022-09-28T17:55:45.320Z,4.57
2022-09-28T17:58:23.914Z,4.15
2022-09-28T18:00:55.005Z,4.13
2022-09-28T18:03:27.246Z,3.17
2022-09-28T18:06:07.427Z,3.58
2022-09-28T18:08:37.893Z,3.40
2022-09-28T18:11:07.013Z,3.28
2022-09-28T18:13:34.359Z,3.17
2022-09-28T18:16:01.539Z,3.70
2022-09-28T18:18:30.257Z,3.50
2022-09-28T18:20:59.704Z,2.80
2022-09-28T18:23:30.746Z,3.85
2022-09-28T18:26:01.117Z,5.53
2022-09-28T18:28:31.378Z,5.13
2022-09-28T18:31:01.538Z,3.38
2022-09-28T18:36:13.805Z,3.07
2022-09-28T18:38:44.295Z,2.78
2022-09-28T18:41:18.498Z,3.05
2022-09-28T18:43:50.220Z,3.25
2022-09-28T18:46:19.166Z,3.33
2022-09-28T18:48:49.013Z,4.82
2022-09-28T18:51:20.326Z,6.20
2022-09-28T18:53:49.859Z,7.65
2022-09-28T18:56:21.134Z,7.70
2022-09-28T18:58:53.808Z,4.97
2022-09-28T19:01:29.898Z,4.28
2022-09-28T19:04:07.183Z,4.07
2022-09-28T19:06:39.215Z,3.20
2022-09-28T19:09:08.706Z,2.80
2022-09-28T19:11:39.778Z,3.00
2022-09-28T19:14:11.726Z,3.25
2022-09-28T19:16:39.766Z,3.47
2022-09-28T19:19:08.395Z,3.38
2022-09-28T19:21:35.874Z,3.35
2022-09-28T19:24:05.116Z,3.83
2022-09-28T19:26:33.936Z,4.15
2022-09-28T19:29:03.067Z,3.97
2022-09-28T19:31:31.125Z,4.53
2022-09-28T19:33:59.435Z,4.38
2022-09-28T19:36:28.849Z,4.45
2022-09-28T19:38:59.019Z,4.13
2022-09-28T19:41:51.738Z,3.63
2022-09-28T19:44:28.828Z,4.35
2022-09-28T19:47:08.061Z,4.05
2022-09-28T19:49:40.018Z,3.67
2022-09-28T19:52:17.551Z,4.35
2022-09-28T19:54:58.820Z,4.60
2022-09-28T19:57:33.028Z,5.18
2022-09-28T20:00:04.093Z,3.70
2022-09-28T20:02:36.471Z,3.67
2022-09-28T20:05:06.259Z,4.00
2022-09-28T20:07:36.830Z,4.30
2022-09-28T20:10:06.022Z,4.70
2022-09-28T20:12:36.828Z,4.40
2022-09-28T20:15:09.016Z,4.70
2022-09-28T20:17:39.024Z,4.28
2022-09-28T20:20:09.944Z,4.75
2022-09-28T20:22:38.964Z,5.30
2022-09-28T20:25:09.740Z,5.93
2022-09-28T20:27:40.444Z,8.15
2022-09-28T20:30:09.772Z,7.28
2022-09-28T20:32:39.042Z,11.88
2022-09-28T20:35:09.216Z,8.35
2022-09-28T20:37:37.659Z,8.10
2022-09-28T20:40:08.106Z,5.55
2022-09-28T20:42:36.621Z,5.28
2022-09-28T20:45:05.775Z,4.50
2022-09-28T20:47:33.227Z,4.45
2022-09-28T20:50:01.531Z,4.78
2022-09-28T20:52:30.630Z,4.47
2022-09-28T20:55:01.120Z,5.70
2022-09-28T20:57:31.631Z,5.63
2022-09-28T21:00:01.014Z,5.30
2022-09-28T21:02:31.547Z,5.20
2022-09-28T21:05:02.709Z,5.47
2022-09-28T21:07:32.562Z,5.50
2022-09-28T21:10:02.780Z,5.28
2022-09-28T21:12:35.152Z,5.72
2022-09-28T21:15:06.183Z,4.80
2022-09-28T21:17:35.589Z,5.00
2022-09-28T21:20:04.889Z,4.53
2022-09-28T21:22:35.016Z,4.30
2022-09-28T21:25:04.178Z,5.50
2022-09-28T21:27:35.739Z,9.38
2022-09-28T21:30:07.388Z,8.20
2022-09-28T21:32:37.646Z,8.57
2022-09-28T21:35:08.287Z,9.75
2022-09-28T21:37:38.012Z,7.88
2022-09-28T21:40:10.743Z,8.10
2022-09-28T21:42:40.026Z,8.07
2022-09-28T21:45:09.754Z,6.38
2022-09-28T21:47:42.985Z,5.70
2022-09-28T21:50:12.852Z,5.90
2022-09-28T21:52:41.581Z,5.32
2022-09-28T21:55:11.658Z,5.32
2022-09-28T21:57:44.336Z,5.85
2022-09-28T22:00:15.809Z,7.05
2022-09-28T22:02:45.577Z,7.95
2022-09-28T22:05:13.633Z,7.25
2022-09-28T22:07:44.089Z,6.80
2022-09-28T22:10:15.449Z,6.80
2022-09-28T22:12:46.882Z,6.55
2022-09-28T22:15:16.535Z,6.93
2022-09-28T22:17:47.015Z,6.82
2022-09-28T22:20:15.151Z,6.70
2022-09-28T22:22:45.142Z,7.05
2022-09-28T22:25:15.980Z,6.40
2022-09-28T22:27:44.522Z,6.10
2022-09-28T22:30:13.949Z,4.63
2022-09-28T22:32:42.332Z,4.25
2022-09-28T22:35:10.237Z,4.35
2022-09-28T22:37:37.107Z,4.28
2022-09-28T22:40:04.796Z,4.40
2022-09-28T22:42:33.612Z,3.75
2022-09-28T22:45:01.000Z,3.95
2022-09-28T22:47:30.041Z,4.28
2022-09-28T22:49:57.493Z,4.32
2022-09-28T22:52:24.337Z,4.32
2022-09-28T22:54:51.585Z,4.35
2022-09-28T22:57:19.376Z,4.63
2022-09-28T22:59:46.585Z,4.78
2022-09-28T23:02:14.566Z,4.85
2022-09-28T23:04:41.257Z,4.20
2022-09-28T23:07:08.090Z,4.78
2022-09-28T23:09:35.406Z,4.40
2022-09-28T23:12:02.202Z,4.63
2022-09-28T23:14:46.453Z,4.15
2022-09-28T23:17:14.520Z,4.60
2022-09-28T23:19:41.875Z,4.38
2022-09-28T23:22:09.551Z,4.63
2022-09-28T23:24:37.601Z,4.95
2022-09-28T23:27:07.729Z,5.15
2022-09-28T23:29:34.677Z,5.30
2022-09-28T23:32:02.165Z,5.10
2022-09-28T23:34:30.222Z,5.15
2022-09-28T23:36:59.648Z,5.32
2022-09-28T23:39:26.925Z,5.72
2022-09-28T23:41:54.567Z,5.05
2022-09-28T23:44:21.759Z,5.30
2022-09-28T23:46:49.083Z,5.38
2022-09-28T23:49:16.611Z,5.07
2022-09-28T23:51:44.916Z,5.32
2022-09-28T23:54:12.062Z,5.47
2022-09-28T23:56:38.955Z,5.57
2022-09-28T23:59:07.388Z,5.55
